Terminal Aerodrome Forecast
Issued by NWS Pittsburgh, PA

Current Version | Previous Version | Graphics & Text | Print | Product List | Glossary On
Versions: 1 2 3 4 5 6 7 8 9 10 11 12 13 14 15 16 17 18 19 20 21 22 23 24 25 26 27 28 29 30 31 32 33 34
077
FTUS41 KPBZ 280520
TAFPIT
TAF
KPIT 280520Z 2806/2912 00000KT P6SM SCT250
     FM281500 20005KT P6SM SCT035
     FM282100 22005KT P6SM VCTS BKN040CB
     FM290100 VRB03KT P6SM VCSH BKN060=

USA.gov is the U.S. government's official web portal to all federal, state and local government web resources and services.